sensor_id;sensor_type;location;lat;lon;timestamp;pressure;altitude;pressure_sealevel;temperature;humidity
75006;BME280;63553;51.814;4.600;2024-02-28T00:00:22;102161.72;;;13.48;66.45
75006;BME280;63553;51.814;4.600;2024-02-28T00:02:47;102165.31;;;13.48;66.26
75006;BME280;63553;51.814;4.600;2024-02-28T00:05:12;102154.97;;;13.49;66.47
75006;BME280;63553;51.814;4.600;2024-02-28T00:07:38;102155.59;;;13.46;66.31
75006;BME280;63553;51.814;4.600;2024-02-28T00:10:03;102150.84;;;13.46;66.70
75006;BME280;63553;51.814;4.600;2024-02-28T00:12:29;102157.25;;;13.47;66.53
75006;BME280;63553;51.814;4.600;2024-02-28T00:14:54;102154.47;;;13.47;66.41
75006;BME280;63553;51.814;4.600;2024-02-28T00:17:19;102162.00;;;13.46;66.60
75006;BME280;63553;51.814;4.600;2024-02-28T00:19:45;102167.09;;;13.44;66.62
75006;BME280;63553;51.814;4.600;2024-02-28T00:22:10;102165.94;;;13.45;66.50
75006;BME280;63553;51.814;4.600;2024-02-28T00:24:35;102168.72;;;13.45;66.42
75006;BME280;63553;51.814;4.600;2024-02-28T00:27:01;102167.38;;;13.43;66.75
75006;BME280;63553;51.814;4.600;2024-02-28T00:29:26;102171.00;;;13.43;66.58
75006;BME280;63553;51.814;4.600;2024-02-28T00:31:52;102167.72;;;13.41;66.47
75006;BME280;63553;51.814;4.600;2024-02-28T00:34:17;102162.94;;;13.42;66.81
75006;BME280;63553;51.814;4.600;2024-02-28T00:36:43;102164.91;;;13.41;66.52
75006;BME280;63553;51.814;4.600;2024-02-28T00:39:10;102158.81;;;13.39;66.66
75006;BME280;63553;51.814;4.600;2024-02-28T00:41:35;102160.78;;;13.39;66.71
75006;BME280;63553;51.814;4.600;2024-02-28T00:44:02;102161.59;;;13.39;66.69
75006;BME280;63553;51.814;4.600;2024-02-28T00:46:27;102165.22;;;13.40;66.76
75006;BME280;63553;51.814;4.600;2024-02-28T00:48:53;102157.97;;;13.39;66.61
75006;BME280;63553;51.814;4.600;2024-02-28T00:51:18;102165.53;;;13.38;66.75
75006;BME280;63553;51.814;4.600;2024-02-28T00:53:43;102157.16;;;13.38;66.67
75006;BME280;63553;51.814;4.600;2024-02-28T00:56:09;102158.28;;;13.37;66.52
75006;BME280;63553;51.814;4.600;2024-02-28T00:58:34;102159.13;;;13.38;66.50
75006;BME280;63553;51.814;4.600;2024-02-28T01:00:59;102160.56;;;13.35;66.64
75006;BME280;63553;51.814;4.600;2024-02-28T01:03:24;102159.44;;;13.36;66.58
75006;BME280;63553;51.814;4.600;2024-02-28T01:05:50;102156.94;;;13.34;66.57
75006;BME280;63553;51.814;4.600;2024-02-28T01:08:16;102159.72;;;13.34;66.59
75006;BME280;63553;51.814;4.600;2024-02-28T01:10:45;102160.56;;;13.35;66.65
75006;BME280;63553;51.814;4.600;2024-02-28T01:13:10;102156.09;;;13.34;66.60
75006;BME280;63553;51.814;4.600;2024-02-28T01:15:37;102151.66;;;13.33;66.62
75006;BME280;63553;51.814;4.600;2024-02-28T01:18:04;102148.03;;;13.32;66.69
75006;BME280;63553;51.814;4.600;2024-02-28T01:20:29;102153.91;;;13.31;66.84
75006;BME280;63553;51.814;4.600;2024-02-28T01:22:54;102153.91;;;13.31;66.78
75006;BME280;63553;51.814;4.600;2024-02-28T01:25:20;102152.28;;;13.30;66.64
75006;BME280;63553;51.814;4.600;2024-02-28T01:27:45;102160.66;;;13.30;66.81
75006;BME280;63553;51.814;4.600;2024-02-28T01:30:11;102147.31;;;13.27;66.51
75006;BME280;63553;51.814;4.600;2024-02-28T01:32:36;102154.25;;;13.29;67.30
75006;BME280;63553;51.814;4.600;2024-02-28T01:35:02;102146.16;;;13.28;66.89
75006;BME280;63553;51.814;4.600;2024-02-28T01:37:28;102157.34;;;13.28;66.75
75006;BME280;63553;51.814;4.600;2024-02-28T01:39:53;102151.75;;;13.28;66.79
75006;BME280;63553;51.814;4.600;2024-02-28T01:42:18;102148.13;;;13.27;66.52
75006;BME280;63553;51.814;4.600;2024-02-28T01:44:47;102153.41;;;13.29;66.50
75006;BME280;63553;51.814;4.600;2024-02-28T01:47:13;102148.66;;;13.29;66.75
75006;BME280;63553;51.814;4.600;2024-02-28T01:49:41;102146.16;;;13.28;66.81
75006;BME280;63553;51.814;4.600;2024-02-28T01:52:07;102147.31;;;13.27;66.85
75006;BME280;63553;51.814;4.600;2024-02-28T01:54:34;102143.97;;;13.25;66.87
75006;BME280;63553;51.814;4.600;2024-02-28T01:57:00;102146.78;;;13.25;66.59
75006;BME280;63553;51.814;4.600;2024-02-28T01:59:26;102144.31;;;13.23;66.96
75006;BME280;63553;51.814;4.600;2024-02-28T02:01:51;102150.72;;;13.24;66.92
75006;BME280;63553;51.814;4.600;2024-02-28T02:04:16;102150.72;;;13.24;66.91
75006;BME280;63553;51.814;4.600;2024-02-28T02:06:43;102151.34;;;13.21;66.96
75006;BME280;63553;51.814;4.600;2024-02-28T02:09:10;102144.94;;;13.20;67.22
75006;BME280;63553;51.814;4.600;2024-02-28T02:11:36;102150.81;;;13.19;66.95
75006;BME280;63553;51.814;4.600;2024-02-28T02:14:01;102148.00;;;13.19;66.73
75006;BME280;63553;51.814;4.600;2024-02-28T02:16:26;102159.19;;;13.19;66.94
75006;BME280;63553;51.814;4.600;2024-02-28T02:18:52;102149.16;;;13.18;66.80
75006;BME280;63553;51.814;4.600;2024-02-28T02:21:18;102149.16;;;13.18;66.96
75006;BME280;63553;51.814;4.600;2024-02-28T02:23:45;102148.63;;;13.16;66.91
75006;BME280;63553;51.814;4.600;2024-02-28T02:26:10;102146.16;;;13.14;67.11
75006;BME280;63553;51.814;4.600;2024-02-28T02:28:36;102136.09;;;13.13;66.96
75006;BME280;63553;51.814;4.600;2024-02-28T02:31:01;102151.75;;;13.14;66.99
75006;BME280;63553;51.814;4.600;2024-02-28T02:33:26;102152.88;;;13.13;67.00
75006;BME280;63553;51.814;4.600;2024-02-28T02:35:53;102154.81;;;13.13;66.98
75006;BME280;63553;51.814;4.600;2024-02-28T02:38:18;102151.22;;;13.12;67.05
75006;BME280;63553;51.814;4.600;2024-02-28T02:40:44;102148.44;;;13.12;67.04
75006;BME280;63553;51.814;4.600;2024-02-28T02:43:13;102158.16;;;13.15;67.12
75006;BME280;63553;51.814;4.600;2024-02-28T02:45:39;102149.25;;;13.13;66.87
75006;BME280;63553;51.814;4.600;2024-02-28T02:48:05;102154.03;;;13.12;67.26
75006;BME280;63553;51.814;4.600;2024-02-28T02:50:30;102152.34;;;13.11;67.14
75006;BME280;63553;51.814;4.600;2024-02-28T02:52:55;102151.53;;;13.11;67.06
75006;BME280;63553;51.814;4.600;2024-02-28T02:55:21;102154.31;;;13.11;67.12
75006;BME280;63553;51.814;4.600;2024-02-28T02:57:46;102147.59;;;13.12;66.95
75006;BME280;63553;51.814;4.600;2024-02-28T03:00:12;102145.94;;;13.11;66.86
75006;BME280;63553;51.814;4.600;2024-02-28T03:02:37;102145.94;;;13.11;67.19
75006;BME280;63553;51.814;4.600;2024-02-28T03:05:05;102154.03;;;13.12;67.17
75006;BME280;63553;51.814;4.600;2024-02-28T03:07:30;102152.34;;;13.11;67.25
75006;BME280;63553;51.814;4.600;2024-02-28T03:09:55;102142.03;;;13.12;67.02
75006;BME280;63553;51.814;4.600;2024-02-28T03:12:21;102137.88;;;13.09;67.05
75006;BME280;63553;51.814;4.600;2024-02-28T03:14:47;102136.44;;;13.12;66.90
75006;BME280;63553;51.814;4.600;2024-02-28T03:17:13;102138.06;;;13.13;66.76
75006;BME280;63553;51.814;4.600;2024-02-28T03:19:40;102130.84;;;13.12;66.91
75006;BME280;63553;51.814;4.600;2024-02-28T03:22:05;102128.34;;;13.10;67.02
75006;BME280;63553;51.814;4.600;2024-02-28T03:24:31;102126.72;;;13.09;66.90
75006;BME280;63553;51.814;4.600;2024-02-28T03:26:56;102132.47;;;13.13;66.65
75006;BME280;63553;51.814;4.600;2024-02-28T03:29:21;102128.88;;;13.12;66.85
75006;BME280;63553;51.814;4.600;2024-02-28T03:31:47;102122.16;;;13.13;66.63
75006;BME280;63553;51.814;4.600;2024-02-28T03:34:12;102130.84;;;13.12;66.61
75006;BME280;63553;51.814;4.600;2024-02-28T03:36:38;102132.47;;;13.13;66.52
75006;BME280;63553;51.814;4.600;2024-02-28T03:39:03;102137.25;;;13.12;66.54
75006;BME280;63553;51.814;4.600;2024-02-28T03:41:29;102126.91;;;13.13;66.44
75006;BME280;63553;51.814;4.600;2024-02-28T03:43:54;102131.34;;;13.14;66.65
75006;BME280;63553;51.814;4.600;2024-02-28T03:46:19;102127.72;;;13.13;66.76
75006;BME280;63553;51.814;4.600;2024-02-28T03:48:46;102120.19;;;13.14;66.52
75006;BME280;63553;51.814;4.600;2024-02-28T03:51:11;102125.47;;;13.15;66.45
75006;BME280;63553;51.814;4.600;2024-02-28T03:53:37;102130.22;;;13.15;66.12
75006;BME280;63553;51.814;4.600;2024-02-28T03:56:02;102136.94;;;13.14;66.37
75006;BME280;63553;51.814;4.600;2024-02-28T03:58:28;102134.97;;;13.14;66.52
75006;BME280;63553;51.814;4.600;2024-02-28T04:00:54;102138.63;;;13.15;66.31
75006;BME280;63553;51.814;4.600;2024-02-28T04:03:19;102128.28;;;13.15;66.39
75006;BME280;63553;51.814;4.600;2024-02-28T04:05:44;102131.88;;;13.16;66.36
75006;BME280;63553;51.814;4.600;2024-02-28T04:08:10;102137.44;;;13.16;66.49
75006;BME280;63553;51.814;4.600;2024-02-28T04:10:35;102131.56;;;13.17;66.38
75006;BME280;63553;51.814;4.600;2024-02-28T04:13:01;102127.94;;;13.17;66.56
75006;BME280;63553;51.814;4.600;2024-02-28T04:15:26;102130.22;;;13.15;66.31
75006;BME280;63553;51.814;4.600;2024-02-28T04:17:52;102131.56;;;13.17;66.62
75006;BME280;63553;51.814;4.600;2024-02-28T04:20:17;102137.16;;;13.17;66.53
75006;BME280;63553;51.814;4.600;2024-02-28T04:22:43;102138.28;;;13.16;66.43
75006;BME280;63553;51.814;4.600;2024-02-28T04:25:09;102142.75;;;13.17;66.29
75006;BME280;63553;51.814;4.600;2024-02-28T04:27:36;102150.28;;;13.17;66.36
75006;BME280;63553;51.814;4.600;2024-02-28T04:30:01;102156.72;;;13.17;66.43
75006;BME280;63553;51.814;4.600;2024-02-28T04:32:26;102149.47;;;13.16;66.27
75006;BME280;63553;51.814;4.600;2024-02-28T04:34:52;102157.00;;;13.16;66.65
75006;BME280;63553;51.814;4.600;2024-02-28T04:37:17;102158.16;;;13.15;66.11
75006;BME280;63553;51.814;4.600;2024-02-28T04:39:42;102155.88;;;13.17;66.24
75006;BME280;63553;51.814;4.600;2024-02-28T04:42:08;102161.78;;;13.15;66.10
75006;BME280;63553;51.814;4.600;2024-02-28T04:44:33;102163.75;;;13.15;66.36
75006;BME280;63553;51.814;4.600;2024-02-28T04:46:59;102169.31;;;13.15;66.29
75006;BME280;63553;51.814;4.600;2024-02-28T04:49:24;102163.41;;;13.16;66.15
75006;BME280;63553;51.814;4.600;2024-02-28T04:51:50;102167.88;;;13.17;66.41
75006;BME280;63553;51.814;4.600;2024-02-28T04:54:15;102170.97;;;13.16;66.30
75006;BME280;63553;51.814;4.600;2024-02-28T04:56:41;102177.91;;;13.18;66.36
75006;BME280;63553;51.814;4.600;2024-02-28T04:59:16;102177.91;;;13.18;66.72
75006;BME280;63553;51.814;4.600;2024-02-28T05:01:41;102186.50;;;13.22;66.96
75006;BME280;63553;51.814;4.600;2024-02-28T05:04:08;102176.38;;;13.26;67.53
75006;BME280;63553;51.814;4.600;2024-02-28T05:06:34;102172.84;;;13.34;68.06
75006;BME280;63553;51.814;4.600;2024-02-28T05:09:00;102171.00;;;13.43;68.44
75006;BME280;63553;51.814;4.600;2024-02-28T05:11:25;102176.09;;;13.55;69.40
75006;BME280;63553;51.814;4.600;2024-02-28T05:13:50;102170.69;;;13.72;69.52
75006;BME280;63553;51.814;4.600;2024-02-28T05:16:16;102177.00;;;13.91;69.38
75006;BME280;63553;51.814;4.600;2024-02-28T05:18:44;102177.91;;;14.14;68.99
75006;BME280;63553;51.814;4.600;2024-02-28T05:21:09;102176.25;;;14.40;68.43
75006;BME280;63553;51.814;4.600;2024-02-28T05:23:35;102186.63;;;14.62;67.88
75006;BME280;63553;51.814;4.600;2024-02-28T05:26:01;102178.44;;;14.87;66.93
75006;BME280;63553;51.814;4.600;2024-02-28T05:28:31;102174.47;;;15.11;66.26
75006;BME280;63553;51.814;4.600;2024-02-28T05:30:58;102177.03;;;15.29;65.70
75006;BME280;63553;51.814;4.600;2024-02-28T05:33:25;102172.22;;;15.52;64.65
75006;BME280;63553;51.814;4.600;2024-02-28T05:35:50;102163.72;;;15.74;64.21
75006;BME280;63553;51.814;4.600;2024-02-28T05:38:16;102171.88;;;15.93;63.24
75006;BME280;63553;51.814;4.600;2024-02-28T05:40:41;102176.69;;;16.09;62.90
75006;BME280;63553;51.814;4.600;2024-02-28T05:43:07;102162.53;;;16.32;61.94
75006;BME280;63553;51.814;4.600;2024-02-28T05:45:32;102160.56;;;16.41;61.27
75006;BME280;63553;51.814;4.600;2024-02-28T05:47:57;102157.78;;;16.58;60.84
75006;BME280;63553;51.814;4.600;2024-02-28T05:50:23;102157.75;;;16.75;59.92
75006;BME280;63553;51.814;4.600;2024-02-28T05:52:48;102151.97;;;16.89;59.53
75006;BME280;63553;51.814;4.600;2024-02-28T05:55:13;102152.44;;;16.99;59.14
75006;BME280;63553;51.814;4.600;2024-02-28T05:57:39;102159.34;;;17.10;58.64
75006;BME280;63553;51.814;4.600;2024-02-28T06:00:04;102156.88;;;17.17;58.24
75006;BME280;63553;51.814;4.600;2024-02-28T06:02:36;102163.97;;;17.23;57.86
75006;BME280;63553;51.814;4.600;2024-02-28T06:05:02;102154.38;;;17.25;57.43
75006;BME280;63553;51.814;4.600;2024-02-28T06:07:27;102154.53;;;17.28;57.14
75006;BME280;63553;51.814;4.600;2024-02-28T06:09:52;102160.47;;;17.27;56.95
75006;BME280;63553;51.814;4.600;2024-02-28T06:12:18;102158.03;;;17.25;56.63
75006;BME280;63553;51.814;4.600;2024-02-28T06:14:43;102153.53;;;17.24;56.76
75006;BME280;63553;51.814;4.600;2024-02-28T06:17:08;102162.66;;;17.21;56.90
75006;BME280;63553;51.814;4.600;2024-02-28T06:19:33;102152.91;;;17.18;56.92
75006;BME280;63553;51.814;4.600;2024-02-28T06:21:59;102157.22;;;17.16;56.66
75006;BME280;63553;51.814;4.600;2024-02-28T06:24:24;102163.81;;;17.11;56.55
75006;BME280;63553;51.814;4.600;2024-02-28T06:26:49;102168.44;;;17.07;56.49
75006;BME280;63553;51.814;4.600;2024-02-28T06:29:15;102177.91;;;17.03;56.06
75006;BME280;63553;51.814;4.600;2024-02-28T06:31:40;102186.69;;;17.01;56.61
75006;BME280;63553;51.814;4.600;2024-02-28T06:34:05;102180.38;;;16.96;56.34
75006;BME280;63553;51.814;4.600;2024-02-28T06:36:31;102183.06;;;16.92;56.59
75006;BME280;63553;51.814;4.600;2024-02-28T06:38:56;102184.03;;;16.88;56.19
75006;BME280;63553;51.814;4.600;2024-02-28T06:41:21;102184.22;;;16.83;56.42
75006;BME280;63553;51.814;4.600;2024-02-28T06:43:47;102206.03;;;16.77;56.64
75006;BME280;63553;51.814;4.600;2024-02-28T06:46:12;102209.50;;;16.74;56.76
75006;BME280;63553;51.814;4.600;2024-02-28T06:48:37;102211.97;;;16.67;56.62
75006;BME280;63553;51.814;4.600;2024-02-28T06:51:03;102209.81;;;16.64;56.86
75006;BME280;63553;51.814;4.600;2024-02-28T06:53:29;102219.56;;;16.58;56.88
75006;BME280;63553;51.814;4.600;2024-02-28T06:55:54;102208.97;;;16.55;56.77
75006;BME280;63553;51.814;4.600;2024-02-28T06:58:19;102207.47;;;16.49;56.99
75006;BME280;63553;51.814;4.600;2024-02-28T07:00:46;102225.31;;;16.44;56.99
75006;BME280;63553;51.814;4.600;2024-02-28T07:03:12;102219.81;;;16.39;56.97
75006;BME280;63553;51.814;4.600;2024-02-28T07:05:37;102205.78;;;16.31;56.84
75006;BME280;63553;51.814;4.600;2024-02-28T07:08:03;102214.22;;;16.31;56.88
75006;BME280;63553;51.814;4.600;2024-02-28T07:10:28;102223.28;;;16.28;57.16
75006;BME280;63553;51.814;4.600;2024-02-28T07:12:54;102215.84;;;16.23;57.19
75006;BME280;63553;51.814;4.600;2024-02-28T07:15:19;102214.84;;;16.19;57.17
75006;BME280;63553;51.814;4.600;2024-02-28T07:17:46;102227.56;;;16.17;57.30
75006;BME280;63553;51.814;4.600;2024-02-28T07:20:12;102213.69;;;16.11;57.60
75006;BME280;63553;51.814;4.600;2024-02-28T07:22:37;102227.19;;;16.09;57.35
75006;BME280;63553;51.814;4.600;2024-02-28T07:25:03;102229.84;;;16.06;57.57
75006;BME280;63553;51.814;4.600;2024-02-28T07:27:30;102232.47;;;16.02;57.39
75006;BME280;63553;51.814;4.600;2024-02-28T07:29:55;102233.13;;;15.99;57.73
75006;BME280;63553;51.814;4.600;2024-02-28T07:32:20;102232.94;;;15.96;57.52
75006;BME280;63553;51.814;4.600;2024-02-28T07:34:45;102230.59;;;15.89;57.43
75006;BME280;63553;51.814;4.600;2024-02-28T07:37:11;102228.78;;;15.85;57.62
75006;BME280;63553;51.814;4.600;2024-02-28T07:39:37;102227.47;;;15.82;57.74
75006;BME280;63553;51.814;4.600;2024-02-28T07:42:03;102231.22;;;15.78;57.83
75006;BME280;63553;51.814;4.600;2024-02-28T07:44:28;102238.78;;;15.77;57.71
75006;BME280;63553;51.814;4.600;2024-02-28T07:46:56;102233.03;;;15.74;57.37
75006;BME280;63553;51.814;4.600;2024-02-28T07:49:22;102240.72;;;15.68;57.49
75006;BME280;63553;51.814;4.600;2024-02-28T07:51:50;102235.91;;;15.60;57.50
75006;BME280;63553;51.814;4.600;2024-02-28T07:54:15;102234.09;;;15.55;57.56
75006;BME280;63553;51.814;4.600;2024-02-28T07:56:40;102243.44;;;15.51;57.93
75006;BME280;63553;51.814;4.600;2024-02-28T07:59:06;102245.28;;;15.47;57.96
75006;BME280;63553;51.814;4.600;2024-02-28T08:01:31;102254.78;;;15.46;58.28
75006;BME280;63553;51.814;4.600;2024-02-28T08:03:57;102269.94;;;15.45;58.57
75006;BME280;63553;51.814;4.600;2024-02-28T08:06:22;102278.34;;;15.45;58.69
75006;BME280;63553;51.814;4.600;2024-02-28T08:08:47;102273.06;;;15.43;58.42
75006;BME280;63553;51.814;4.600;2024-02-28T08:11:13;102268.59;;;15.42;58.65
75006;BME280;63553;51.814;4.600;2024-02-28T08:13:39;102278.47;;;15.40;58.70
75006;BME280;63553;51.814;4.600;2024-02-28T08:16:04;102276.31;;;15.37;58.82
75006;BME280;63553;51.814;4.600;2024-02-28T08:18:29;102283.06;;;15.36;59.09
75006;BME280;63553;51.814;4.600;2024-02-28T08:20:55;102280.91;;;15.33;59.04
75006;BME280;63553;51.814;4.600;2024-02-28T08:23:23;102284.88;;;15.32;59.06
75006;BME280;63553;51.814;4.600;2024-02-28T08:25:48;102287.97;;;15.30;58.73
75006;BME280;63553;51.814;4.600;2024-02-28T08:28:14;102296.72;;;15.29;59.00
75006;BME280;63553;51.814;4.600;2024-02-28T08:30:39;102301.78;;;15.27;59.19
75006;BME280;63553;51.814;4.600;2024-02-28T08:33:07;102301.09;;;15.21;59.19
75006;BME280;63553;51.814;4.600;2024-02-28T08:35:35;102302.75;;;15.22;59.29
75006;BME280;63553;51.814;4.600;2024-02-28T08:38:01;102306.69;;;15.21;59.23
75006;BME280;63553;51.814;4.600;2024-02-28T08:40:28;102305.56;;;15.22;59.20
75006;BME280;63553;51.814;4.600;2024-02-28T08:42:53;102310.66;;;15.20;59.45
75006;BME280;63553;51.814;4.600;2024-02-28T08:45:19;102311.47;;;15.21;59.24
75006;BME280;63553;51.814;4.600;2024-02-28T08:47:45;102307.53;;;15.22;59.38
75006;BME280;63553;51.814;4.600;2024-02-28T08:50:10;102300.25;;;15.21;59.51
75006;BME280;63553;51.814;4.600;2024-02-28T08:52:36;102297.34;;;15.26;59.08
75006;BME280;63553;51.814;4.600;2024-02-28T08:55:02;102294.06;;;15.32;58.96
75006;BME280;63553;51.814;4.600;2024-02-28T08:57:28;102294.81;;;15.38;58.99
75006;BME280;63553;51.814;4.600;2024-02-28T08:59:55;102284.19;;;15.48;58.88
75006;BME280;63553;51.814;4.600;2024-02-28T09:02:23;102272.38;;;15.60;58.24
75006;BME280;63553;51.814;4.600;2024-02-28T09:04:48;102267.63;;;15.69;58.06
75006;BME280;63553;51.814;4.600;2024-02-28T09:07:19;102273.19;;;15.91;57.51
75006;BME280;63553;51.814;4.600;2024-02-28T09:09:45;102268.13;;;16.10;57.21
75006;BME280;63553;51.814;4.600;2024-02-28T09:12:10;102276.28;;;16.21;56.86
75006;BME280;63553;51.814;4.600;2024-02-28T09:14:36;102276.78;;;16.31;56.51
75006;BME280;63553;51.814;4.600;2024-02-28T09:17:01;102269.63;;;16.56;55.88
75006;BME280;63553;51.814;4.600;2024-02-28T09:19:30;102276.56;;;16.76;55.35
75006;BME280;63553;51.814;4.600;2024-02-28T09:21:55;102281.03;;;16.85;54.90
75006;BME280;63553;51.814;4.600;2024-02-28T09:24:21;102286.00;;;16.88;54.79
75006;BME280;63553;51.814;4.600;2024-02-28T09:26:46;102291.44;;;16.85;54.62
75006;BME280;63553;51.814;4.600;2024-02-28T09:29:11;102289.47;;;16.77;54.89
75006;BME280;63553;51.814;4.600;2024-02-28T09:31:37;102286.13;;;16.66;55.74
75006;BME280;63553;51.814;4.600;2024-02-28T09:34:02;102291.44;;;16.59;55.54
75006;BME280;63553;51.814;4.600;2024-02-28T09:36:32;102298.00;;;16.54;55.68
75006;BME280;63553;51.814;4.600;2024-02-28T09:38:57;102296.81;;;16.47;55.78
75006;BME280;63553;51.814;4.600;2024-02-28T09:41:23;102295.16;;;16.46;55.92
75006;BME280;63553;51.814;4.600;2024-02-28T09:43:51;102294.47;;;16.40;56.14
75006;BME280;63553;51.814;4.600;2024-02-28T09:46:17;102285.56;;;16.38;56.04
75006;BME280;63553;51.814;4.600;2024-02-28T09:48:42;102285.88;;;16.37;56.35
75006;BME280;63553;51.814;4.600;2024-02-28T09:51:08;102296.94;;;16.33;56.34
75006;BME280;63553;51.814;4.600;2024-02-28T09:53:35;102289.84;;;16.27;56.52
75006;BME280;63553;51.814;4.600;2024-02-28T09:56:00;102298.38;;;16.22;56.63
75006;BME280;63553;51.814;4.600;2024-02-28T09:58:27;102290.97;;;16.18;56.64
75006;BME280;63553;51.814;4.600;2024-02-28T10:00:59;102287.47;;;16.12;56.95
75006;BME280;63553;51.814;4.600;2024-02-28T10:03:24;102286.13;;;16.09;56.91
75006;BME280;63553;51.814;4.600;2024-02-28T10:05:51;102281.69;;;16.08;56.70
75006;BME280;63553;51.814;4.600;2024-02-28T10:08:16;102279.53;;;16.14;56.82
75006;BME280;63553;51.814;4.600;2024-02-28T10:10:46;102273.31;;;16.26;56.51
75006;BME280;63553;51.814;4.600;2024-02-28T10:13:12;102277.81;;;16.44;56.20
75006;BME280;63553;51.814;4.600;2024-02-28T10:15:38;102269.94;;;16.63;55.83
75006;BME280;63553;51.814;4.600;2024-02-28T10:18:03;102269.63;;;16.82;55.28
75006;BME280;63553;51.814;4.600;2024-02-28T10:20:32;102272.31;;;16.95;55.04
75006;BME280;63553;51.814;4.600;2024-02-28T10:22:57;102262.69;;;17.13;54.59
75006;BME280;63553;51.814;4.600;2024-02-28T10:25:23;102259.22;;;17.25;54.17
75006;BME280;63553;51.814;4.600;2024-02-28T10:27:48;102261.34;;;17.37;53.68
75006;BME280;63553;51.814;4.600;2024-02-28T10:30:14;102255.19;;;17.52;53.48
75006;BME280;63553;51.814;4.600;2024-02-28T10:32:48;102268.72;;;17.67;52.90
75006;BME280;63553;51.814;4.600;2024-02-28T10:35:16;102262.25;;;17.75;52.79
75006;BME280;63553;51.814;4.600;2024-02-28T10:37:42;102258.41;;;17.80;52.26
75006;BME280;63553;51.814;4.600;2024-02-28T10:40:09;102265.03;;;17.84;52.17
75006;BME280;63553;51.814;4.600;2024-02-28T10:42:37;102269.84;;;17.83;52.34
75006;BME280;63553;51.814;4.600;2024-02-28T10:45:02;102266.53;;;17.81;52.50
75006;BME280;63553;51.814;4.600;2024-02-28T10:47:28;102272.66;;;17.83;52.38
75006;BME280;63553;51.814;4.600;2024-02-28T10:49:53;102271.00;;;17.82;52.47
75006;BME280;63553;51.814;4.600;2024-02-28T10:52:21;102271.34;;;17.81;52.39
75006;BME280;63553;51.814;4.600;2024-02-28T10:54:53;102264.41;;;17.78;52.26
75006;BME280;63553;51.814;4.600;2024-02-28T10:57:20;102272.50;;;17.80;52.55
75006;BME280;63553;51.814;4.600;2024-02-28T10:59:47;102269.19;;;17.77;52.47
75006;BME280;63553;51.814;4.600;2024-02-28T11:02:13;102266.22;;;17.74;52.65
75006;BME280;63553;51.814;4.600;2024-02-28T11:04:39;102264.75;;;17.68;52.98
75006;BME280;63553;51.814;4.600;2024-02-28T11:07:05;102265.78;;;17.63;52.95
75006;BME280;63553;51.814;4.600;2024-02-28T11:09:31;102274.38;;;17.58;53.04
75006;BME280;63553;51.814;4.600;2024-02-28T11:11:57;102276.22;;;17.46;53.58
75006;BME280;63553;51.814;4.600;2024-02-28T11:14:22;102275.56;;;17.32;54.08
75006;BME280;63553;51.814;4.600;2024-02-28T11:17:03;102275.09;;;17.21;54.10
75006;BME280;63553;51.814;4.600;2024-02-28T11:19:30;102283.84;;;17.11;54.53
75006;BME280;63553;51.814;4.600;2024-02-28T11:21:57;102276.59;;;17.01;54.93
75006;BME280;63553;51.814;4.600;2024-02-28T11:24:24;102268.66;;;16.95;54.88
75006;BME280;63553;51.814;4.600;2024-02-28T11:26:53;102264.66;;;16.87;55.44
75006;BME280;63553;51.814;4.600;2024-02-28T11:29:26;102254.75;;;16.81;55.40
75006;BME280;63553;51.814;4.600;2024-02-28T11:31:52;102261.03;;;16.78;55.70
75006;BME280;63553;51.814;4.600;2024-02-28T11:34:18;102256.06;;;16.75;55.70
75006;BME280;63553;51.814;4.600;2024-02-28T11:36:47;102252.59;;;16.70;56.25
75006;BME280;63553;51.814;4.600;2024-02-28T11:39:13;102246.66;;;16.62;56.38
75006;BME280;63553;51.814;4.600;2024-02-28T11:41:38;102245.66;;;16.58;56.57
75006;BME280;63553;51.814;4.600;2024-02-28T11:44:05;102248.47;;;16.58;56.50
75006;BME280;63553;51.814;4.600;2024-02-28T11:46:30;102242.38;;;16.56;56.33
75006;BME280;63553;51.814;4.600;2024-02-28T11:48:56;102240.69;;;16.55;56.42
75006;BME280;63553;51.814;4.600;2024-02-28T11:51:22;102246.94;;;16.52;56.51
75006;BME280;63553;51.814;4.600;2024-02-28T11:53:48;102238.16;;;16.45;56.57
75006;BME280;63553;51.814;4.600;2024-02-28T11:56:13;102254.22;;;16.45;56.71
75006;BME280;63553;51.814;4.600;2024-02-28T11:58:54;102250.22;;;16.37;57.08
75006;BME280;63553;51.814;4.600;2024-02-28T12:01:42;102251.34;;;16.28;57.19
75006;BME280;63553;51.814;4.600;2024-02-28T12:04:14;102246.53;;;16.20;57.51
75006;BME280;63553;51.814;4.600;2024-02-28T12:06:40;102243.91;;;16.15;57.33
75006;BME280;63553;51.814;4.600;2024-02-28T12:09:07;102247.84;;;16.13;57.56
75006;BME280;63553;51.814;4.600;2024-02-28T12:11:36;102252.44;;;16.09;57.78
75006;BME280;63553;51.814;4.600;2024-02-28T12:14:06;102253.09;;;16.06;57.85
75006;BME280;63553;51.814;4.600;2024-02-28T12:16:36;102247.16;;;15.99;57.89
75006;BME280;63553;51.814;4.600;2024-02-28T12:19:03;102246.66;;;15.97;58.07
75006;BME280;63553;51.814;4.600;2024-02-28T12:21:28;102239.69;;;15.95;58.19
75006;BME280;63553;51.814;4.600;2024-02-28T12:23:56;102233.75;;;15.88;58.56
75006;BME280;63553;51.814;4.600;2024-02-28T12:26:21;102233.75;;;15.88;58.57
75006;BME280;63553;51.814;4.600;2024-02-28T12:28:47;102234.88;;;15.87;58.62
75006;BME280;63553;51.814;4.600;2024-02-28T12:31:12;102238.03;;;15.85;58.55
75006;BME280;63553;51.814;4.600;2024-02-28T12:33:39;102241.47;;;15.82;58.78
75006;BME280;63553;51.814;4.600;2024-02-28T12:36:05;102232.88;;;15.79;58.81
75006;BME280;63553;51.814;4.600;2024-02-28T12:38:30;102229.41;;;15.73;58.88
75006;BME280;63553;51.814;4.600;2024-02-28T12:40:56;102226.41;;;15.70;59.11
75006;BME280;63553;51.814;4.600;2024-02-28T12:43:22;102223.25;;;15.71;59.05